createdAt,value
2018-11-06T00:01:34.284Z,90.40
2018-11-06T00:04:05.703Z,90.30
2018-11-06T00:06:36.621Z,90.90
2018-11-06T00:09:09.415Z,90.40
2018-11-06T00:11:40.588Z,90.20
2018-11-06T00:14:11.374Z,90.30
2018-11-06T00:16:42.749Z,90.10
2018-11-06T00:19:13.524Z,90.60
2018-11-06T00:21:44.438Z,90.50
2018-11-06T00:24:15.289Z,90.90
2018-11-06T00:26:46.443Z,90.90
2018-11-06T00:29:17.220Z,90.90
2018-11-06T00:31:48.077Z,90.00
2018-11-06T00:34:19.084Z,89.40
2018-11-06T00:36:49.930Z,88.90
2018-11-06T00:39:20.944Z,89.40
2018-11-06T00:41:51.835Z,90.60
2018-11-06T00:44:22.713Z,90.70
2018-11-06T00:46:53.474Z,90.70
2018-11-06T00:49:24.237Z,90.60
2018-11-06T00:51:55.298Z,90.30
2018-11-06T00:54:26.006Z,90.40
2018-11-06T00:56:56.844Z,90.30
2018-11-06T00:59:27.590Z,90.50
2018-11-06T01:01:58.504Z,90.30
2018-11-06T01:04:29.434Z,90.00
2018-11-06T01:07:00.293Z,90.20
2018-11-06T01:09:31.164Z,90.50
2018-11-06T01:12:01.990Z,90.40
2018-11-06T01:14:32.777Z,90.00
2018-11-06T01:17:03.645Z,90.00
2018-11-06T01:19:34.479Z,90.00
2018-11-06T01:22:05.274Z,90.00
2018-11-06T01:24:36.041Z,90.50
2018-11-06T01:27:07.526Z,91.20
2018-11-06T01:29:38.329Z,91.60
2018-11-06T01:32:09.350Z,91.70
2018-11-06T01:34:40.078Z,91.50
2018-11-06T01:37:11.075Z,91.00
2018-11-06T01:39:41.891Z,90.90
2018-11-06T01:42:12.830Z,90.80
2018-11-06T01:44:43.886Z,90.80
2018-11-06T01:47:14.676Z,90.60
2018-11-06T01:49:45.533Z,91.20
2018-11-06T01:52:16.386Z,90.60
2018-11-06T01:54:47.255Z,90.40
2018-11-06T01:57:18.156Z,90.60
2018-11-06T01:59:49.065Z,90.50
2018-11-06T02:02:20.027Z,89.80
2018-11-06T02:04:50.878Z,90.00
2018-11-06T02:07:21.906Z,90.20
2018-11-06T02:09:52.739Z,90.90
2018-11-06T02:12:24.641Z,90.90
2018-11-06T02:14:55.821Z,91.40
2018-11-06T02:17:26.833Z,91.40
2018-11-06T02:19:57.796Z,91.40
2018-11-06T02:22:28.581Z,91.60
2018-11-06T02:24:59.441Z,91.20
2018-11-06T02:27:30.230Z,90.90
2018-11-06T02:30:01.171Z,90.70
2018-11-06T02:32:32.180Z,90.60
2018-11-06T02:35:02.978Z,91.00
2018-11-06T02:37:34.056Z,91.70
2018-11-06T02:40:04.953Z,91.30
2018-11-06T02:42:35.895Z,90.80
2018-11-06T02:45:07.113Z,90.50
2018-11-06T02:47:38.139Z,90.90
2018-11-06T02:50:10.111Z,91.60
2018-11-06T02:52:41.317Z,91.50
2018-11-06T02:55:12.482Z,91.60
2018-11-06T02:57:43.860Z,91.60
2018-11-06T03:00:16.536Z,91.20
2018-11-06T03:02:48.487Z,91.30
2018-11-06T03:05:19.596Z,90.80
2018-11-06T03:07:50.509Z,90.50
2018-11-06T03:10:21.533Z,90.40
2018-11-06T03:12:52.625Z,90.60
2018-11-06T03:15:23.616Z,90.70
2018-11-06T03:17:54.485Z,90.60
2018-11-06T03:20:25.475Z,90.60
2018-11-06T03:22:56.403Z,90.50
2018-11-06T03:25:27.208Z,90.00
2018-11-06T03:27:57.971Z,90.00
2018-11-06T03:30:28.904Z,90.20
2018-11-06T03:32:59.740Z,90.40
2018-11-06T03:35:30.979Z,91.00
2018-11-06T03:38:01.708Z,91.30
2018-11-06T03:40:32.459Z,91.70
2018-11-06T03:43:03.189Z,91.60
2018-11-06T03:45:33.920Z,91.70
2018-11-06T03:48:04.716Z,91.40
2018-11-06T03:50:35.653Z,91.10
2018-11-06T03:53:06.738Z,90.40
2018-11-06T03:55:37.825Z,90.10
2018-11-06T03:58:08.772Z,90.20
2018-11-06T04:00:39.523Z,90.90
2018-11-06T04:03:10.378Z,91.00
2018-11-06T04:05:41.181Z,91.10
2018-11-06T04:08:12.043Z,91.30
2018-11-06T04:10:43.171Z,91.50
2018-11-06T04:13:14.162Z,91.30
2018-11-06T04:15:45.063Z,91.30
2018-11-06T04:18:15.907Z,91.90
2018-11-06T04:20:47.097Z,92.20
2018-11-06T04:23:18.014Z,91.80
2018-11-06T04:25:48.915Z,91.70
2018-11-06T04:28:19.864Z,91.20
2018-11-06T04:30:50.910Z,90.80
2018-11-06T04:33:21.832Z,91.10
2018-11-06T04:35:53.418Z,91.10
2018-11-06T04:38:24.398Z,91.30
2018-11-06T04:40:55.444Z,91.30
2018-11-06T04:43:26.349Z,91.00
2018-11-06T04:45:57.398Z,90.90
2018-11-06T04:48:28.490Z,91.30
2018-11-06T04:50:59.694Z,91.20
2018-11-06T04:53:33.029Z,91.10
2018-11-06T04:56:05.034Z,90.90
2018-11-06T04:58:35.810Z,91.20
2018-11-06T05:01:07.216Z,91.20
2018-11-06T05:03:42.054Z,91.10
2018-11-06T05:06:12.982Z,91.00
2018-11-06T05:08:44.394Z,91.00
2018-11-06T05:11:15.750Z,91.30
2018-11-06T05:13:46.743Z,91.20
2018-11-06T05:16:17.668Z,91.00
2018-11-06T05:18:48.509Z,90.90
2018-11-06T05:21:19.640Z,90.80
2018-11-06T05:23:50.556Z,90.40
2018-11-06T05:26:21.686Z,90.70
2018-11-06T05:28:52.613Z,90.80
2018-11-06T05:31:23.822Z,90.60
2018-11-06T05:33:54.843Z,90.40
2018-11-06T05:36:25.747Z,90.40
2018-11-06T05:38:57.018Z,90.10
2018-11-06T05:41:28.038Z,90.10
2018-11-06T05:43:59.422Z,89.90
2018-11-06T05:46:30.507Z,90.10
2018-11-06T05:49:01.408Z,88.90
2018-11-06T05:51:32.734Z,87.10
2018-11-06T05:54:03.768Z,86.00
2018-11-06T05:56:34.759Z,84.90
2018-11-06T05:59:05.961Z,83.90
2018-11-06T06:01:37.025Z,82.60
2018-11-06T06:04:08.239Z,81.50
2018-11-06T06:06:39.179Z,81.70
2018-11-06T06:09:10.268Z,81.10
2018-11-06T06:11:41.175Z,79.50
2018-11-06T06:14:12.215Z,77.30
2018-11-06T06:16:43.100Z,77.60
2018-11-06T06:19:14.063Z,77.20
2018-11-06T06:21:45.271Z,76.20
2018-11-06T06:24:16.245Z,74.70
2018-11-06T06:26:47.575Z,73.00
2018-11-06T06:29:18.561Z,73.00
2018-11-06T06:31:49.644Z,73.00
2018-11-06T06:34:20.618Z,72.80
2018-11-06T06:36:51.755Z,71.90
2018-11-06T06:39:22.565Z,70.90
2018-11-06T06:41:53.426Z,70.20
2018-11-06T06:44:24.507Z,68.60
2018-11-06T06:46:55.486Z,69.70
2018-11-06T06:49:26.551Z,70.20
2018-11-06T06:51:57.964Z,70.20
2018-11-06T06:54:29.496Z,68.20
2018-11-06T06:57:01.032Z,67.30
2018-11-06T06:59:32.516Z,67.50
2018-11-06T07:02:04.573Z,67.40
2018-11-06T07:04:36.080Z,68.30
2018-11-06T07:07:07.238Z,68.80
2018-11-06T07:09:38.430Z,68.90
2018-11-06T07:12:10.007Z,68.40
2018-11-06T07:14:40.853Z,67.80
2018-11-06T07:17:12.576Z,67.60
2018-11-06T07:19:43.523Z,67.70
2018-11-06T07:22:14.908Z,68.50
2018-11-06T07:24:46.127Z,66.90
2018-11-06T07:27:17.015Z,66.80
2018-11-06T07:29:48.014Z,66.00
2018-11-06T07:32:19.021Z,65.30
2018-11-06T07:34:50.420Z,64.80
2018-11-06T07:37:21.715Z,63.70
2018-11-06T07:39:52.857Z,63.50
2018-11-06T07:42:23.712Z,61.90
2018-11-06T07:44:54.975Z,61.10
2018-11-06T07:47:26.585Z,60.80
2018-11-06T07:49:57.685Z,60.60
2018-11-06T07:52:28.592Z,61.20
2018-11-06T07:54:59.570Z,58.90
2018-11-06T07:57:30.531Z,59.40
2018-11-06T08:00:01.563Z,58.60
2018-11-06T08:02:32.570Z,59.40
2018-11-06T08:05:03.673Z,58.80
2018-11-06T08:07:34.772Z,58.50
2018-11-06T08:10:06.609Z,59.10
2018-11-06T08:12:37.709Z,59.20
2018-11-06T08:15:09.812Z,58.10
2018-11-06T08:17:41.044Z,57.40
2018-11-06T08:20:12.309Z,57.80
2018-11-06T08:22:43.397Z,57.70
2018-11-06T08:25:15.428Z,57.20
2018-11-06T08:27:46.996Z,56.90
2018-11-06T08:30:17.959Z,56.70
2018-11-06T08:32:48.896Z,56.60
2018-11-06T08:35:19.790Z,56.60
2018-11-06T08:37:51.143Z,55.80
2018-11-06T08:40:22.152Z,55.40
2018-11-06T08:42:53.491Z,54.50
2018-11-06T08:45:24.385Z,53.60
2018-11-06T08:47:55.442Z,53.30
2018-11-06T08:50:26.979Z,53.50
2018-11-06T08:52:58.005Z,52.40
2018-11-06T08:55:28.916Z,52.00
2018-11-06T08:57:59.911Z,53.20
2018-11-06T09:00:30.817Z,52.30
2018-11-06T09:03:01.832Z,52.20
2018-11-06T09:05:33.071Z,52.20
2018-11-06T09:08:04.054Z,51.30
2018-11-06T09:10:35.102Z,51.20
2018-11-06T09:13:06.149Z,50.50
2018-11-06T09:15:37.087Z,50.60
2018-11-06T09:18:08.133Z,50.30
2018-11-06T09:20:39.135Z,50.50
2018-11-06T09:23:10.119Z,50.80
2018-11-06T09:25:41.092Z,51.50
2018-11-06T09:28:12.171Z,51.10
2018-11-06T09:30:43.274Z,51.30
2018-11-06T09:33:14.199Z,51.20
2018-11-06T09:35:45.213Z,50.70
2018-11-06T09:38:16.402Z,50.30
2018-11-06T09:40:47.434Z,50.80
2018-11-06T09:43:18.628Z,50.80
2018-11-06T09:45:49.623Z,49.70
2018-11-06T09:48:20.712Z,49.70
2018-11-06T09:50:51.723Z,48.90
2018-11-06T09:53:23.002Z,49.40
2018-11-06T09:55:54.046Z,50.00
2018-11-06T09:58:25.011Z,49.80
2018-11-06T10:00:56.069Z,49.80
2018-11-06T10:03:27.061Z,49.60
2018-11-06T10:05:57.999Z,50.50
2018-11-06T10:08:29.315Z,51.00
2018-11-06T10:11:00.730Z,50.70
2018-11-06T10:13:31.548Z,51.80
2018-11-06T10:16:02.646Z,52.30
2018-11-06T10:18:33.539Z,53.70
2018-11-06T10:21:04.438Z,53.80
2018-11-06T10:23:35.414Z,54.00
2018-11-06T10:26:06.626Z,55.20
2018-11-06T10:28:37.681Z,55.60
2018-11-06T10:31:08.598Z,55.80
2018-11-06T10:33:39.463Z,56.20
2018-11-06T10:36:10.543Z,56.40
2018-11-06T10:38:41.736Z,55.90
2018-11-06T10:41:12.854Z,56.20
2018-11-06T10:43:43.849Z,55.40
2018-11-06T10:46:15.038Z,55.00
2018-11-06T10:48:45.966Z,55.00
2018-11-06T10:51:17.253Z,54.90
2018-11-06T10:53:48.337Z,54.30
2018-11-06T10:56:19.609Z,55.50
2018-11-06T10:58:50.626Z,55.10
2018-11-06T11:01:26.873Z,54.40
2018-11-06T11:04:17.451Z,54.90
2018-11-06T11:06:48.633Z,54.30
2018-11-06T11:09:19.667Z,53.90
2018-11-06T11:11:50.702Z,54.40
2018-11-06T11:14:21.667Z,53.30
2018-11-06T11:16:52.663Z,53.40
2018-11-06T11:19:23.697Z,53.20
2018-11-06T11:21:54.630Z,51.90
2018-11-06T11:24:25.610Z,52.50
2018-11-06T11:26:56.661Z,52.60
2018-11-06T11:29:27.662Z,51.70
2018-11-06T11:31:58.855Z,51.30
2018-11-06T11:34:30.061Z,51.40
2018-11-06T11:37:00.829Z,51.20
2018-11-06T11:39:31.719Z,50.90
2018-11-06T11:42:02.582Z,51.10
2018-11-06T11:44:33.576Z,50.70
2018-11-06T11:47:04.623Z,50.40
2018-11-06T11:49:35.687Z,50.40
2018-11-06T11:52:06.539Z,50.30
2018-11-06T11:54:37.730Z,50.60
2018-11-06T11:57:08.726Z,50.60
2018-11-06T11:59:39.798Z,49.00
2018-11-06T12:02:10.755Z,49.30
2018-11-06T12:04:41.737Z,48.90
2018-11-06T12:07:12.774Z,48.50
2018-11-06T12:09:43.887Z,48.30
2018-11-06T12:12:14.786Z,48.60
2018-11-06T12:14:46.097Z,48.40
2018-11-06T12:17:17.105Z,47.70
2018-11-06T12:19:48.141Z,47.90
2018-11-06T12:22:19.115Z,48.10
2018-11-06T12:24:50.360Z,47.70
2018-11-06T12:27:21.296Z,47.30
2018-11-06T12:29:52.269Z,47.20
2018-11-06T12:32:23.083Z,47.70
2018-11-06T12:34:54.178Z,47.60
2018-11-06T12:37:25.047Z,47.50
2018-11-06T12:39:56.025Z,47.60
2018-11-06T12:42:26.959Z,47.20
2018-11-06T12:44:57.891Z,47.90
2018-11-06T12:47:28.916Z,48.10
2018-11-06T12:50:00.009Z,48.20
2018-11-06T12:52:30.981Z,48.70
2018-11-06T12:55:01.934Z,49.00
2018-11-06T12:57:32.971Z,49.50
2018-11-06T13:00:04.022Z,50.00
2018-11-06T13:02:35.131Z,50.90
2018-11-06T13:05:06.491Z,50.30
2018-11-06T13:07:38.183Z,50.80
2018-11-06T13:10:09.955Z,50.60
2018-11-06T13:12:41.512Z,50.40
2018-11-06T13:15:12.867Z,50.50
2018-11-06T13:17:43.909Z,51.10
2018-11-06T13:20:16.272Z,52.20
2018-11-06T13:22:47.189Z,52.20
2018-11-06T13:25:18.394Z,53.30
2018-11-06T13:27:49.243Z,53.80
2018-11-06T13:30:20.552Z,54.00
2018-11-06T13:32:51.561Z,54.70
2018-11-06T13:35:22.667Z,55.10
2018-11-06T13:37:53.592Z,55.40
2018-11-06T13:40:24.542Z,55.90
2018-11-06T13:42:55.763Z,56.30
2018-11-06T13:45:27.207Z,56.00
2018-11-06T13:47:58.045Z,55.80
2018-11-06T13:50:28.913Z,56.20
2018-11-06T13:52:59.830Z,56.30
2018-11-06T13:55:30.937Z,56.80
2018-11-06T13:58:02.280Z,56.60
2018-11-06T14:00:33.306Z,56.40
2018-11-06T14:03:04.871Z,56.40
2018-11-06T14:05:36.234Z,56.10
2018-11-06T14:08:07.604Z,56.00
2018-11-06T14:10:38.572Z,55.90
2018-11-06T14:13:09.458Z,56.10
2018-11-06T14:15:40.447Z,56.20
2018-11-06T14:18:11.426Z,56.70
2018-11-06T14:20:42.436Z,57.10
2018-11-06T14:23:13.370Z,57.40
2018-11-06T14:25:44.299Z,57.70
2018-11-06T14:28:15.334Z,57.40
2018-11-06T14:30:46.505Z,57.60
2018-11-06T14:33:17.408Z,58.10
2018-11-06T14:35:48.486Z,58.60
2018-11-06T14:38:19.522Z,58.80
2018-11-06T14:40:50.472Z,58.60
2018-11-06T14:43:21.460Z,58.70
2018-11-06T14:45:52.542Z,58.80
2018-11-06T14:48:23.741Z,59.20
2018-11-06T14:50:54.790Z,59.40
2018-11-06T14:53:25.725Z,59.50
2018-11-06T14:55:56.868Z,59.70
2018-11-06T14:58:27.911Z,60.00
2018-11-06T15:00:58.867Z,60.20
2018-11-06T15:03:29.804Z,60.70
2018-11-06T15:06:01.027Z,61.20
2018-11-06T15:08:32.216Z,61.50
2018-11-06T15:11:03.535Z,61.80
2018-11-06T15:13:34.560Z,62.10
2018-11-06T15:16:05.704Z,62.50
2018-11-06T15:18:36.747Z,62.80
2018-11-06T15:21:08.105Z,63.00
2018-11-06T15:23:39.210Z,63.40
2018-11-06T15:26:10.334Z,63.90
2018-11-06T15:28:41.557Z,64.00
2018-11-06T15:31:12.545Z,64.30
2018-11-06T15:33:43.503Z,64.50
2018-11-06T15:36:14.515Z,64.90
2018-11-06T15:38:45.405Z,65.40
2018-11-06T15:41:16.524Z,65.80
2018-11-06T15:43:47.475Z,66.20
2018-11-06T15:46:18.567Z,66.40
2018-11-06T15:48:49.743Z,66.70
2018-11-06T15:51:20.594Z,67.10
2018-11-06T15:53:51.568Z,67.60
2018-11-06T15:56:22.638Z,68.00
2018-11-06T15:58:54.300Z,69.20
2018-11-06T16:01:26.689Z,69.40
2018-11-06T16:03:57.922Z,69.90
2018-11-06T16:06:29.131Z,70.20
2018-11-06T16:09:00.190Z,70.90
2018-11-06T16:11:31.243Z,71.20
2018-11-06T16:14:02.246Z,71.40
2018-11-06T16:16:33.434Z,71.90
2018-11-06T16:19:04.988Z,72.50
2018-11-06T16:21:36.426Z,73.50
2018-11-06T16:24:07.405Z,74.50
2018-11-06T16:26:38.570Z,75.50
2018-11-06T16:29:09.787Z,76.10
2018-11-06T16:31:40.953Z,76.40
2018-11-06T16:34:11.954Z,76.80
2018-11-06T16:36:43.136Z,77.10
2018-11-06T16:39:14.735Z,78.00
2018-11-06T16:41:46.057Z,78.40
2018-11-06T16:44:17.166Z,78.50
2018-11-06T16:46:48.518Z,79.20
2018-11-06T16:49:19.699Z,79.30
2018-11-06T16:51:50.709Z,79.50
2018-11-06T16:54:21.835Z,79.70
2018-11-06T16:56:52.874Z,79.70
2018-11-06T16:59:24.070Z,79.20
2018-11-06T17:01:54.933Z,79.40
2018-11-06T17:04:25.982Z,79.60
2018-11-06T17:06:56.919Z,79.70
2018-11-06T17:09:27.984Z,80.20
2018-11-06T17:11:59.000Z,80.70
2018-11-06T17:14:30.265Z,81.40
2018-11-06T17:17:01.361Z,81.90
2018-11-06T17:19:32.326Z,82.30
2018-11-06T17:22:03.523Z,82.90
2018-11-06T17:24:34.745Z,83.50
2018-11-06T17:27:06.277Z,83.90
2018-11-06T17:29:37.341Z,84.00
2018-11-06T17:32:08.272Z,84.20
2018-11-06T17:34:39.205Z,84.20
2018-11-06T17:37:10.362Z,84.70
2018-11-06T17:39:41.466Z,84.90
2018-11-06T17:42:12.492Z,85.10
2018-11-06T17:44:43.572Z,85.20
2018-11-06T17:47:14.690Z,85.40
2018-11-06T17:49:46.425Z,85.60
2018-11-06T17:52:17.679Z,85.60
2018-11-06T17:54:48.941Z,86.20
2018-11-06T17:57:20.043Z,86.70
2018-11-06T17:59:51.203Z,86.90
2018-11-06T18:02:22.224Z,86.60
2018-11-06T18:04:53.267Z,86.40
2018-11-06T18:07:24.457Z,86.60
2018-11-06T18:09:55.612Z,86.70
2018-11-06T18:12:27.231Z,86.40
2018-11-06T18:14:58.575Z,87.60
2018-11-06T18:17:29.568Z,86.90
2018-11-06T18:20:00.538Z,86.20
2018-11-06T18:22:31.845Z,86.70
2018-11-06T18:25:02.967Z,86.80
2018-11-06T18:27:33.898Z,86.20
2018-11-06T18:30:05.213Z,87.10
2018-11-06T18:32:36.243Z,86.40
2018-11-06T18:35:09.641Z,86.30
2018-11-06T18:37:41.194Z,87.10
2018-11-06T18:40:15.698Z,86.80
2018-11-06T18:42:47.796Z,86.00
2018-11-06T18:45:19.127Z,88.10
2018-11-06T18:47:50.532Z,87.70
2018-11-06T18:50:21.828Z,88.40
2018-11-06T18:52:53.277Z,88.40
2018-11-06T18:55:24.237Z,88.50
2018-11-06T18:57:55.735Z,90.20
2018-11-06T19:00:26.821Z,89.20
2018-11-06T19:02:57.904Z,90.60
2018-11-06T19:05:29.464Z,90.30
2018-11-06T19:08:00.582Z,90.40
2018-11-06T19:10:32.089Z,91.50
2018-11-06T19:13:03.314Z,91.40
2018-11-06T19:15:35.184Z,91.10
2018-11-06T19:18:08.193Z,90.80
2018-11-06T19:20:40.258Z,90.50
2018-11-06T19:23:11.857Z,90.30
2018-11-06T19:25:42.985Z,90.10
2018-11-06T19:28:14.080Z,89.80
2018-11-06T19:30:45.526Z,89.40
2018-11-06T19:33:16.610Z,89.20
2018-11-06T19:35:47.716Z,89.00
2018-11-06T19:38:18.810Z,88.80
2018-11-06T19:40:50.569Z,88.50
2018-11-06T19:43:21.802Z,88.20
2018-11-06T19:45:53.042Z,87.80
2018-11-06T19:48:24.918Z,87.40
2018-11-06T19:50:56.007Z,87.30
2018-11-06T19:53:27.039Z,87.00
2018-11-06T19:55:58.123Z,86.90
2018-11-06T19:58:29.568Z,86.70
2018-11-06T20:01:02.384Z,86.60
2018-11-06T20:03:34.127Z,86.80
2018-11-06T20:06:07.080Z,87.00
2018-11-06T20:08:38.614Z,87.10
2018-11-06T20:11:09.669Z,87.50
2018-11-06T20:13:41.749Z,87.50
2018-11-06T20:16:12.998Z,87.60
2018-11-06T20:18:45.451Z,87.70
2018-11-06T20:21:16.711Z,87.80
2018-11-06T20:23:49.624Z,87.90
2018-11-06T20:26:21.062Z,88.10
2018-11-06T20:28:52.350Z,88.40
2018-11-06T20:31:23.760Z,88.50
2018-11-06T20:33:58.409Z,89.10
2018-11-06T20:36:29.855Z,89.20
2018-11-06T20:39:00.849Z,89.30
2018-11-06T20:41:31.961Z,89.70
2018-11-06T20:44:05.769Z,89.90
2018-11-06T20:46:36.907Z,90.10
2018-11-06T20:49:09.346Z,90.00
2018-11-06T20:51:42.408Z,90.10
2018-11-06T20:54:13.628Z,90.30
2018-11-06T20:56:44.911Z,90.30
2018-11-06T20:59:16.247Z,90.30
2018-11-06T21:01:47.657Z,90.30
2018-11-06T21:04:18.735Z,90.50
2018-11-06T21:06:49.914Z,90.60
2018-11-06T21:09:22.005Z,90.90
2018-11-06T21:11:53.311Z,90.80
2018-11-06T21:14:24.538Z,90.70
2018-11-06T21:16:56.505Z,90.70
2018-11-06T21:19:27.728Z,90.70
2018-11-06T21:22:00.521Z,90.70
2018-11-06T21:24:31.570Z,91.00
2018-11-06T21:27:02.589Z,91.10
2018-11-06T21:29:33.751Z,90.00
2018-11-06T21:32:05.382Z,88.70
2018-11-06T21:34:36.442Z,88.10
2018-11-06T21:37:07.490Z,86.20
2018-11-06T21:39:39.463Z,86.30
2018-11-06T21:42:11.858Z,87.10
2018-11-06T21:44:43.540Z,87.50
2018-11-06T21:47:14.570Z,88.30
2018-11-06T21:49:45.537Z,89.10
2018-11-06T21:52:17.777Z,90.00
2018-11-06T21:54:49.639Z,90.00
2018-11-06T21:57:22.714Z,90.20
2018-11-06T21:59:54.809Z,90.40
2018-11-06T22:02:26.088Z,90.30
2018-11-06T22:04:57.022Z,90.10
2018-11-06T22:07:27.910Z,90.40
2018-11-06T22:09:58.998Z,90.50
2018-11-06T22:12:30.139Z,90.50
2018-11-06T22:15:01.390Z,90.70
2018-11-06T22:17:32.419Z,90.80
2018-11-06T22:20:03.367Z,90.80
2018-11-06T22:22:34.460Z,90.60
2018-11-06T22:25:05.924Z,90.60
2018-11-06T22:27:37.867Z,90.80
2018-11-06T22:30:12.155Z,90.90
2018-11-06T22:32:44.059Z,91.10
2018-11-06T22:35:16.865Z,91.00
2018-11-06T22:37:48.024Z,91.40
2018-11-06T22:40:19.242Z,90.80
2018-11-06T22:42:51.761Z,90.80
2018-11-06T22:45:22.740Z,90.80
2018-11-06T22:47:53.660Z,91.20
2018-11-06T22:50:24.880Z,91.30
2018-11-06T22:52:55.877Z,91.20
2018-11-06T22:55:26.914Z,91.70
2018-11-06T22:57:58.343Z,91.50
2018-11-06T23:00:34.494Z,91.50
2018-11-06T23:03:10.053Z,91.70
2018-11-06T23:05:41.258Z,91.80
2018-11-06T23:08:17.210Z,91.80
2018-11-06T23:10:48.311Z,91.70
2018-11-06T23:13:19.186Z,92.00
2018-11-06T23:15:50.304Z,91.80
2018-11-06T23:18:21.502Z,91.70
2018-11-06T23:20:52.965Z,91.80
2018-11-06T23:23:23.948Z,91.60
2018-11-06T23:25:54.848Z,91.60
2018-11-06T23:28:26.352Z,91.70
2018-11-06T23:30:57.292Z,91.50
2018-11-06T23:33:28.146Z,91.80
2018-11-06T23:35:59.080Z,92.20
2018-11-06T23:38:30.004Z,92.30
2018-11-06T23:41:00.757Z,92.30
2018-11-06T23:43:31.646Z,92.20
2018-11-06T23:46:02.513Z,92.20
2018-11-06T23:48:33.765Z,92.20
2018-11-06T23:51:04.593Z,92.40
2018-11-06T23:53:35.853Z,92.50
2018-11-06T23:56:06.870Z,92.30
2018-11-06T23:58:37.614Z,92.20
